createdAt,value
2023-05-05T00:32:27.717Z,1004.194
2023-05-05T01:02:45.249Z,1003.821
2023-05-05T01:33:02.141Z,1003.808
2023-05-05T02:03:21.184Z,1003.778
2023-05-05T02:33:38.145Z,1004.092
2023-05-05T03:03:57.726Z,1004.159
2023-05-05T03:34:18.784Z,1004.181
2023-05-05T04:04:35.645Z,1004.179
2023-05-05T04:34:55.782Z,1004.308
2023-05-05T05:05:16.370Z,1004.433
2023-05-05T05:35:37.844Z,1004.6460000000001
2023-05-05T06:05:58.029Z,1004.8839999999999
2023-05-05T06:36:27.481Z,1004.85
2023-05-05T07:06:52.349Z,1004.987
2023-05-05T07:37:08.809Z,1004.985
2023-05-05T08:07:36.507Z,1004.9110000000001
2023-05-05T08:38:03.028Z,1004.937
2023-05-05T09:08:21.935Z,1004.985
2023-05-05T09:38:40.316Z,1004.663
2023-05-05T10:09:01.944Z,1004.472
2023-05-05T10:39:24.721Z,1004.357
2023-05-05T11:09:45.362Z,1004.13
2023-05-05T11:40:07.562Z,1003.956
2023-05-05T12:10:27.315Z,1003.653
2023-05-05T12:40:31.189Z,1003.796
2023-05-05T13:10:39.392Z,1003.318
2023-05-05T13:40:54.709Z,1003.0880000000001
2023-05-05T14:10:58.842Z,1003.133
2023-05-05T14:41:08.010Z,1003.255
2023-05-05T15:11:16.126Z,1003.8489999999999
2023-05-05T15:41:33.807Z,1003.678
2023-05-05T16:11:52.980Z,1003.789
2023-05-05T16:42:10.044Z,1003.595
2023-05-05T17:12:26.891Z,1003.5189999999999
2023-05-05T17:42:44.029Z,1003.665
2023-05-05T18:13:03.492Z,1003.8530000000001
2023-05-05T18:43:20.500Z,1004.176
2023-05-05T19:43:55.480Z,1004.395
2023-05-05T20:14:11.801Z,1004.365
2023-05-05T20:44:28.545Z,1004.648
2023-05-05T21:14:51.771Z,1004.682
2023-05-05T21:45:10.202Z,1004.7810000000001
2023-05-05T22:15:32.627Z,1004.675
2023-05-05T22:45:46.868Z,1004.888
2023-05-05T23:16:08.047Z,1004.998
2023-05-05T23:46:26.084Z,1004.822
